Flight Track Log - Related Links

Times and Time Zones

All times are in EDT time to prevent confusion due to time zone crossing. See the EJA820 flight status page for this flight to view local times or setup timezone preferences in your user account.

Time Position Orientation Groundspeed Altitude Reporting Facility
EDT Latitude Longitude Course Direction KTS MPH feet Rate Location/Type
Wed 06:13:41 PM 41.3961 -81.8731 77° East 180 207 2,000  Level Cleveland Center
Wed 06:15:14 PM 41.3658 -81.9581 245° Southwest 247 284 5,300 1,922 Climbing Cleveland Center
Wed 06:16:14 PM 41.4131 -82.0228 314° West 219 252 6,900 2,000 Climbing Cleveland Center
Wed 06:17:14 PM 41.4756 -82.0242 359° North 186 214 9,300 2,350 Climbing Cleveland Center
Wed 06:18:14 PM 41.5289 -81.9256 54° Northeast 202 232 11,600 2,250 Climbing Cleveland Center
Wed 06:19:00 PM 41.8681 -81.1418 77° East  Level FlightAware Approximate
Wed 06:19:14 PM 41.5947 -81.8186 51° Northeast 309 356 13,800  Level Cleveland Center
Wed 06:20:14 PM 41.6647 -81.7033 51° Northeast 374 430 15,900 2,100 Climbing Cleveland Center
Wed 06:21:14 PM 41.7347 -81.5878 51° Northeast 404 465 18,000 1,950 Climbing Cleveland Center
Wed 06:22:14 PM 41.8000 -81.4828 50° Northeast 410 472 19,800 1,850 Climbing Cleveland Center
Wed 06:23:14 PM 41.8492 -81.3442 64° Northeast 410 472 21,700 1,600 Climbing Cleveland Center
Wed 06:24:14 PM 41.8750 -81.1883 77° East 419 482 23,000 700 Climbing Cleveland Center
Wed 06:25:14 PM 41.9028 -81.0183 78° East 444 511 23,100  Climbing Cleveland Center
Wed 06:26:14 PM 41.9325 -80.8317 78° East 464 534 23,000 250 Descending Cleveland Center
Wed 06:27:14 PM 41.9600 -80.6558 78° East 469 540 23,600 1,500 Climbing Cleveland Center
Wed 06:28:14 PM 41.9850 -80.4939 78° East 461 531 26,000 1,700 Climbing Cleveland Center
Wed 06:29:14 PM 42.0119 -80.3289 78° East 446 513 27,000 1,050 Climbing Cleveland Center
Wed 06:30:14 PM 42.0383 -80.1525 79° East 462 532 28,100 1,300 Climbing Cleveland Center
Wed 06:31:14 PM 42.0647 -79.9764 79° East 475 547 29,600 1,500 Climbing Cleveland Center
Wed 06:32:14 PM 42.0928 -79.8053 77° East 475 547 31,100 1,500 Climbing Cleveland Center
Wed 06:33:14 PM 42.1167 -79.6342 79° East 470 541 32,600 950 Climbing Cleveland Center
Wed 06:34:14 PM 42.1400 -79.4631 80° East 465 535 33,000 250 Climbing Cleveland Center
Wed 06:35:14 PM 42.1653 -79.2806 79° East 470 541 33,100  Climbing Cleveland Center
Wed 06:36:14 PM 42.1922 -79.1064 78° East 475 547 33,000 -50 Descending Cleveland Center
Wed 06:37:14 PM 42.2128 -78.9319 81° East 478 550 33,000 50 Level Cleveland Center
Wed 06:38:14 PM 42.2353 -78.7575 80° East 473 544 33,100  Climbing Cleveland Center
Wed 06:39:14 PM 42.2658 -78.5856 76° East 467 537 33,000  Descending Cleveland Center
Wed 06:40:14 PM 42.3208 -78.4097 67° East 481 554 33,100 50 Climbing Cleveland Center
Wed 06:41:14 PM 42.3758 -78.2392 66° East 493 567 33,100  Level Cleveland Center
Wed 06:42:14 PM 42.4331 -78.0739 65° Northeast 487 560 33,100 -50 Level Cleveland Center
Wed 06:43:14 PM 42.5044 -77.9189 58° Northeast 481 554 33,000 -50 Descending Cleveland Center
Wed 06:44:14 PM 42.5494 -77.7872 65° Northeast 481 554 33,000  Level Cleveland Center
Wed 06:45:14 PM 42.5753 -77.5775 80° East 468 539 33,000 29 Level Cleveland Center
Wed 06:47:40 PM 42.5997 -77.1739 85° East 469 540 33,100 29 Climbing Boston Center
Wed 06:48:40 PM 42.6111 -76.9997 85° East 464 534 33,100 -50 Level Boston Center
Wed 06:49:40 PM 42.6200 -76.8283 86° East 459 528 33,000 -50 Descending Boston Center
Wed 06:50:40 PM 42.6308 -76.6511 85° East 459 528 33,000 50 Level Boston Center
Wed 06:51:40 PM 42.6394 -76.4711 86° East 459 528 33,100  Climbing Boston Center
Wed 06:52:52 PM 42.6475 -76.2964 86° East 464 534 33,000 -45 Descending Boston Center
Wed 06:53:52 PM 42.6467 -76.0733 90° East 458 527 33,000 -100 Level Boston Center
Wed 06:54:52 PM 42.6436 -75.9008 91° East 453 521 32,800 -700 Descending Boston Center
Wed 06:55:52 PM 42.6425 -75.7286 90° East 459 528 31,600 -1,300 Descending Boston Center
Wed 06:56:52 PM 42.6411 -75.5592 91° East 459 528 30,200 -1,300 Descending Boston Center
Wed 06:57:52 PM 42.6394 -75.3897 91° East 459 528 29,000 -600 Descending Boston Center
Wed 06:58:52 PM 42.6356 -75.2117 92° East 459 528 29,000  Level Boston Center
Wed 06:59:52 PM 42.6314 -75.0364 92° East 464 534 29,000  Level Boston Center
Wed 07:00:52 PM 42.6289 -74.8586 91° East 464 534 29,000  Level Boston Center
Wed 07:01:52 PM 42.6261 -74.6864 91° East 464 534 29,000  Level Boston Center
Wed 07:02:52 PM 42.6228 -74.5450 92° East 464 534 29,000  Level Boston Center
Wed 07:03:52 PM 42.6181 -74.3361 92° East 464 534 29,000  Level Boston Center
Wed 07:04:52 PM 42.6144 -74.1639 92° East 459 528 29,000  Level Boston Center
Wed 07:05:52 PM 42.6108 -73.9889 92° East 459 528 29,000  Level Boston Center
Wed 07:07:04 PM 42.6047 -73.8139 93° East 459 528 29,000 45 Level Boston Center
Wed 07:08:04 PM 42.6008 -73.6078 91° East 459 528 29,100 50 Climbing Boston Center
Wed 07:09:04 PM 42.5961 -73.4328 92° East 459 528 29,100 -50 Level Boston Center
Wed 07:10:04 PM 42.5933 -73.2664 91° East 479 551 29,000 -150 Descending Boston Center
Wed 07:11:04 PM 42.5881 -73.0944 92° East 473 544 28,800 -650 Descending Boston Center
Wed 07:12:04 PM 42.5808 -72.9222 93° East 464 534 27,700 -2,091 Descending Boston Center
Wed 07:13:16 PM 42.5750 -72.7642 93° East 436 502 24,200 -3,773 Descending Boston Center
Wed 07:14:16 PM 42.5669 -72.5753 93° East 415 478 19,400 -3,650 Descending Boston Center
Wed 07:15:16 PM 42.5608 -72.4372 93° East 399 459 16,900 -3,300 Descending Boston Center
Wed 07:16:16 PM 42.5567 -72.2964 92° East 385 443 12,800 -3,650 Descending Boston Center
Wed 07:17:16 PM 42.5481 -72.1639 95° East 363 418 9,600 -2,900 Descending Boston Center
Wed 07:18:16 PM 42.5414 -72.0342 94° East 331 381 7,000 -1,750 Descending Boston Center
Wed 07:19:16 PM 42.5347 -71.9300 95° East 308 354 6,100 -450 Descending Boston Center
Wed 07:20:16 PM 42.5217 -71.8064 98° East 303 349 6,100 -50 Level Boston Center
Wed 07:21:16 PM 42.5147 -71.6992 95° East 303 349 6,000 -650 Descending Boston Center
Wed 07:22:16 PM 42.5161 -71.5922 89° East 275 316 4,800 -1,280 Descending Boston Center
Wed 07:22:31 PM 42.5167 -71.5667 88° East 259 298 4,400 -1,360 Descending KA90
Wed 07:23:31 PM 42.5167 -71.4667 90° East 235 270 3,100 -1,000 Descending KA90
Wed 07:24:25 PM 42.5167 -71.4000 90° East 212 244 2,500 -579 Descending KA90
Wed 07:25:25 PM 42.5167 -71.3333 90° East 192 221 2,000 -286 Descending KA90
Wed 07:26:31 PM 42.5000 -71.2500 105° East 178 205 1,900 -545 Descending KA90
Wed 07:27:26 PM 42.4833 -71.2333 144° Southeast 110 127 900 -582 Descending KA90
Wed 07:29:16 PM 42.4464 -71.2611 209° Southwest 80 92 300 8,153 Descending Boston Center
Wed 07:30:16 PM 42.4256 -71.2700 197° South 80 92 24,000 11,850 Climbing Boston Center
Wed 07:31:16 PM 42.4047 -71.2761 192° South 80 92 24,000  Level Boston Center
Wed 07:32:16 PM 42.3883 -71.2819 195° South 80 92 24,000  Level Boston Center
Wed 07:33:16 PM 42.3842 -71.2850 208° Southwest 80 92 24,000  Level Boston Center
Wed 07:35:00 PM 42.4667 -71.2833 246° West  Level FlightAware Approximate

Login

Don't have an account? Register now (free) for customized features, flight alerts, and more!